sensor_id;sensor_type;location;lat;lon;timestamp;P1;durP1;ratioP1;P2;durP2;ratioP2
24301;SDS011;12421;49.732;20.078;2023-11-21T00:09:38;4.60;;;2.20;;
24301;SDS011;12421;49.732;20.078;2023-11-21T00:19:41;4.30;;;2.00;;
24301;SDS011;12421;49.732;20.078;2023-11-21T00:29:46;7.00;;;2.50;;
24301;SDS011;12421;49.732;20.078;2023-11-21T00:39:49;5.90;;;2.60;;
24301;SDS011;12421;49.732;20.078;2023-11-21T00:49:52;7.00;;;3.10;;
24301;SDS011;12421;49.732;20.078;2023-11-21T00:59:56;5.70;;;2.70;;
24301;SDS011;12421;49.732;20.078;2023-11-21T01:09:59;6.50;;;3.70;;
24301;SDS011;12421;49.732;20.078;2023-11-21T01:20:03;6.10;;;3.00;;
24301;SDS011;12421;49.732;20.078;2023-11-21T01:30:15;5.60;;;2.60;;
24301;SDS011;12421;49.732;20.078;2023-11-21T01:40:19;6.10;;;3.40;;
24301;SDS011;12421;49.732;20.078;2023-11-21T01:50:22;6.10;;;2.80;;
24301;SDS011;12421;49.732;20.078;2023-11-21T02:00:27;6.00;;;2.80;;
24301;SDS011;12421;49.732;20.078;2023-11-21T02:10:32;3.20;;;1.80;;
24301;SDS011;12421;49.732;20.078;2023-11-21T02:20:36;4.50;;;2.20;;
24301;SDS011;12421;49.732;20.078;2023-11-21T02:30:41;4.50;;;1.50;;
24301;SDS011;12421;49.732;20.078;2023-11-21T02:40:47;3.30;;;1.30;;
24301;SDS011;12421;49.732;20.078;2023-11-21T02:50:52;3.60;;;1.10;;
24301;SDS011;12421;49.732;20.078;2023-11-21T03:00:56;4.20;;;1.30;;
24301;SDS011;12421;49.732;20.078;2023-11-21T03:10:59;3.10;;;1.30;;
24301;SDS011;12421;49.732;20.078;2023-11-21T03:21:03;4.90;;;1.10;;
24301;SDS011;12421;49.732;20.078;2023-11-21T03:31:07;3.50;;;1.30;;
24301;SDS011;12421;49.732;20.078;2023-11-21T03:41:12;4.80;;;1.40;;
24301;SDS011;12421;49.732;20.078;2023-11-21T03:51:15;3.40;;;1.10;;
24301;SDS011;12421;49.732;20.078;2023-11-21T04:01:19;5.30;;;1.50;;
24301;SDS011;12421;49.732;20.078;2023-11-21T04:11:24;3.60;;;1.80;;
24301;SDS011;12421;49.732;20.078;2023-11-21T04:21:27;5.00;;;1.60;;
24301;SDS011;12421;49.732;20.078;2023-11-21T04:31:31;5.20;;;2.30;;
24301;SDS011;12421;49.732;20.078;2023-11-21T04:41:35;4.90;;;1.70;;
24301;SDS011;12421;49.732;20.078;2023-11-21T04:51:39;3.40;;;1.80;;
24301;SDS011;12421;49.732;20.078;2023-11-21T05:01:42;7.40;;;1.90;;
24301;SDS011;12421;49.732;20.078;2023-11-21T05:11:46;7.90;;;3.00;;
24301;SDS011;12421;49.732;20.078;2023-11-21T05:21:49;5.50;;;3.20;;
24301;SDS011;12421;49.732;20.078;2023-11-21T05:31:52;5.40;;;2.50;;
24301;SDS011;12421;49.732;20.078;2023-11-21T05:41:56;4.80;;;2.50;;
24301;SDS011;12421;49.732;20.078;2023-11-21T05:52:00;6.50;;;3.00;;
24301;SDS011;12421;49.732;20.078;2023-11-21T06:02:04;17.10;;;9.40;;
24301;SDS011;12421;49.732;20.078;2023-11-21T06:12:08;23.40;;;14.00;;
24301;SDS011;12421;49.732;20.078;2023-11-21T06:22:11;6.70;;;3.40;;
24301;SDS011;12421;49.732;20.078;2023-11-21T06:32:15;9.60;;;3.70;;
24301;SDS011;12421;49.732;20.078;2023-11-21T06:42:19;6.60;;;3.30;;
24301;SDS011;12421;49.732;20.078;2023-11-21T06:52:23;5.60;;;2.80;;
24301;SDS011;12421;49.732;20.078;2023-11-21T07:02:26;7.40;;;3.70;;
24301;SDS011;12421;49.732;20.078;2023-11-21T07:12:31;6.10;;;2.50;;
24301;SDS011;12421;49.732;20.078;2023-11-21T07:22:34;7.00;;;2.30;;
24301;SDS011;12421;49.732;20.078;2023-11-21T07:32:38;4.20;;;2.00;;
24301;SDS011;12421;49.732;20.078;2023-11-21T07:42:43;4.10;;;2.10;;
24301;SDS011;12421;49.732;20.078;2023-11-21T07:52:47;4.70;;;2.10;;
24301;SDS011;12421;49.732;20.078;2023-11-21T08:02:50;6.20;;;3.60;;
24301;SDS011;12421;49.732;20.078;2023-11-21T08:12:53;6.50;;;3.50;;
24301;SDS011;12421;49.732;20.078;2023-11-21T08:22:57;6.10;;;3.00;;
24301;SDS011;12421;49.732;20.078;2023-11-21T08:33:00;6.70;;;3.10;;
24301;SDS011;12421;49.732;20.078;2023-11-21T08:43:06;5.70;;;3.40;;
24301;SDS011;12421;49.732;20.078;2023-11-21T08:53:11;9.90;;;3.10;;
24301;SDS011;12421;49.732;20.078;2023-11-21T09:03:14;5.70;;;3.60;;
24301;SDS011;12421;49.732;20.078;2023-11-21T09:13:18;9.20;;;5.00;;
24301;SDS011;12421;49.732;20.078;2023-11-21T09:23:21;8.40;;;4.10;;
24301;SDS011;12421;49.732;20.078;2023-11-21T09:33:24;11.50;;;5.40;;
24301;SDS011;12421;49.732;20.078;2023-11-21T09:43:28;8.30;;;4.20;;
24301;SDS011;12421;49.732;20.078;2023-11-21T09:53:33;9.10;;;4.10;;
24301;SDS011;12421;49.732;20.078;2023-11-21T10:03:38;9.60;;;5.10;;
24301;SDS011;12421;49.732;20.078;2023-11-21T10:13:42;7.20;;;3.30;;
24301;SDS011;12421;49.732;20.078;2023-11-21T10:23:48;10.40;;;4.60;;
24301;SDS011;12421;49.732;20.078;2023-11-21T10:34:12;8.60;;;2.80;;
24301;SDS011;12421;49.732;20.078;2023-11-21T10:44:16;7.20;;;3.20;;
24301;SDS011;12421;49.732;20.078;2023-11-21T10:54:26;11.50;;;3.80;;
24301;SDS011;12421;49.732;20.078;2023-11-21T11:04:29;7.10;;;2.70;;
24301;SDS011;12421;49.732;20.078;2023-11-21T11:14:35;6.90;;;3.00;;
24301;SDS011;12421;49.732;20.078;2023-11-21T11:35:10;5.50;;;2.70;;
24301;SDS011;12421;49.732;20.078;2023-11-21T11:45:22;6.70;;;2.90;;
24301;SDS011;12421;49.732;20.078;2023-11-21T11:55:34;6.20;;;2.90;;
24301;SDS011;12421;49.732;20.078;2023-11-21T12:05:38;8.30;;;4.50;;
24301;SDS011;12421;49.732;20.078;2023-11-21T12:15:44;8.70;;;3.20;;
24301;SDS011;12421;49.732;20.078;2023-11-21T12:25:49;6.20;;;2.70;;
24301;SDS011;12421;49.732;20.078;2023-11-21T12:35:52;5.20;;;2.30;;
24301;SDS011;12421;49.732;20.078;2023-11-21T12:46:06;9.60;;;3.10;;
24301;SDS011;12421;49.732;20.078;2023-11-21T12:56:10;8.90;;;4.40;;
24301;SDS011;12421;49.732;20.078;2023-11-21T13:06:15;15.00;;;10.20;;
24301;SDS011;12421;49.732;20.078;2023-11-21T13:16:19;7.70;;;3.50;;
24301;SDS011;12421;49.732;20.078;2023-11-21T13:26:23;8.50;;;4.50;;
24301;SDS011;12421;49.732;20.078;2023-11-21T13:36:29;9.60;;;3.50;;
24301;SDS011;12421;49.732;20.078;2023-11-21T13:46:35;8.70;;;3.80;;
24301;SDS011;12421;49.732;20.078;2023-11-21T13:56:41;6.80;;;3.70;;
24301;SDS011;12421;49.732;20.078;2023-11-21T14:06:48;8.70;;;4.20;;
24301;SDS011;12421;49.732;20.078;2023-11-21T14:16:54;11.50;;;7.10;;
24301;SDS011;12421;49.732;20.078;2023-11-21T14:37:06;9.50;;;4.60;;
24301;SDS011;12421;49.732;20.078;2023-11-21T14:47:10;8.90;;;4.10;;
24301;SDS011;12421;49.732;20.078;2023-11-21T14:57:19;10.00;;;5.00;;
24301;SDS011;12421;49.732;20.078;2023-11-21T15:07:25;11.60;;;6.10;;
24301;SDS011;12421;49.732;20.078;2023-11-21T15:17:30;13.80;;;8.10;;
24301;SDS011;12421;49.732;20.078;2023-11-21T15:27:35;16.30;;;10.70;;
24301;SDS011;12421;49.732;20.078;2023-11-21T15:37:39;17.60;;;9.20;;
24301;SDS011;12421;49.732;20.078;2023-11-21T15:47:43;19.20;;;11.40;;
24301;SDS011;12421;49.732;20.078;2023-11-21T15:57:47;13.30;;;7.80;;
24301;SDS011;12421;49.732;20.078;2023-11-21T16:07:52;11.40;;;7.60;;
24301;SDS011;12421;49.732;20.078;2023-11-21T16:17:56;12.30;;;7.90;;
24301;SDS011;12421;49.732;20.078;2023-11-21T16:27:59;12.80;;;7.80;;
24301;SDS011;12421;49.732;20.078;2023-11-21T16:48:11;12.50;;;7.20;;
24301;SDS011;12421;49.732;20.078;2023-11-21T16:58:16;11.10;;;6.90;;
24301;SDS011;12421;49.732;20.078;2023-11-21T17:08:19;10.10;;;6.50;;
24301;SDS011;12421;49.732;20.078;2023-11-21T17:18:23;12.30;;;7.90;;
24301;SDS011;12421;49.732;20.078;2023-11-21T17:28:27;12.20;;;7.40;;
24301;SDS011;12421;49.732;20.078;2023-11-21T17:38:30;13.80;;;9.10;;
24301;SDS011;12421;49.732;20.078;2023-11-21T17:48:35;19.60;;;11.50;;
24301;SDS011;12421;49.732;20.078;2023-11-21T17:58:41;22.00;;;9.80;;
24301;SDS011;12421;49.732;20.078;2023-11-21T18:08:45;18.40;;;11.50;;
24301;SDS011;12421;49.732;20.078;2023-11-21T18:18:48;16.70;;;10.90;;
24301;SDS011;12421;49.732;20.078;2023-11-21T18:38:59;16.50;;;10.50;;
24301;SDS011;12421;49.732;20.078;2023-11-21T18:49:02;18.30;;;9.90;;
24301;SDS011;12421;49.732;20.078;2023-11-21T18:59:06;17.60;;;11.20;;
24301;SDS011;12421;49.732;20.078;2023-11-21T19:09:13;26.90;;;15.20;;
24301;SDS011;12421;49.732;20.078;2023-11-21T19:19:16;19.90;;;12.70;;
24301;SDS011;12421;49.732;20.078;2023-11-21T19:29:23;14.50;;;9.50;;
24301;SDS011;12421;49.732;20.078;2023-11-21T19:39:26;17.60;;;10.80;;
24301;SDS011;12421;49.732;20.078;2023-11-21T19:49:30;19.30;;;12.40;;
24301;SDS011;12421;49.732;20.078;2023-11-21T19:59:36;16.30;;;9.90;;
24301;SDS011;12421;49.732;20.078;2023-11-21T20:09:46;9.30;;;6.30;;
24301;SDS011;12421;49.732;20.078;2023-11-21T20:19:52;6.10;;;4.40;;
24301;SDS011;12421;49.732;20.078;2023-11-21T20:29:55;6.80;;;4.30;;
24301;SDS011;12421;49.732;20.078;2023-11-21T20:40:06;6.20;;;4.00;;
24301;SDS011;12421;49.732;20.078;2023-11-21T20:50:11;8.60;;;5.40;;
24301;SDS011;12421;49.732;20.078;2023-11-21T21:00:14;9.70;;;7.10;;
24301;SDS011;12421;49.732;20.078;2023-11-21T21:10:21;6.70;;;4.20;;
24301;SDS011;12421;49.732;20.078;2023-11-21T21:20:25;8.40;;;4.40;;
24301;SDS011;12421;49.732;20.078;2023-11-21T21:30:29;7.10;;;4.40;;
24301;SDS011;12421;49.732;20.078;2023-11-21T21:40:33;7.20;;;4.30;;
24301;SDS011;12421;49.732;20.078;2023-11-21T21:50:38;9.80;;;6.40;;
24301;SDS011;12421;49.732;20.078;2023-11-21T22:00:42;14.00;;;8.10;;
24301;SDS011;12421;49.732;20.078;2023-11-21T22:10:46;16.40;;;10.70;;
24301;SDS011;12421;49.732;20.078;2023-11-21T22:20:49;11.60;;;7.80;;
24301;SDS011;12421;49.732;20.078;2023-11-21T22:30:53;9.70;;;6.60;;
24301;SDS011;12421;49.732;20.078;2023-11-21T22:40:57;12.10;;;6.90;;
24301;SDS011;12421;49.732;20.078;2023-11-21T22:51:00;8.50;;;5.70;;
24301;SDS011;12421;49.732;20.078;2023-11-21T23:01:03;7.80;;;5.40;;
24301;SDS011;12421;49.732;20.078;2023-11-21T23:11:08;8.30;;;5.60;;
24301;SDS011;12421;49.732;20.078;2023-11-21T23:21:12;7.40;;;4.90;;
24301;SDS011;12421;49.732;20.078;2023-11-21T23:31:16;6.90;;;4.50;;
24301;SDS011;12421;49.732;20.078;2023-11-21T23:41:19;5.90;;;4.30;;
24301;SDS011;12421;49.732;20.078;2023-11-21T23:51:26;5.90;;;3.60;;
